Port Richmond — WDH2442 — position and weather

sailwx.info

Track history (hours):
 
Tides and Currents Weather Stations Pressure Air Temp Water Temp Dewpoint Dewpoint Depression Visibility Wind Speed Wind Dir Waves Ship Positions

Port Richmond

Owner: NEW YORK, CITY OF, BROOKLYN, NY. More information available from US FCC via Universal Licensing System and Coast Guard Vessel Documentation Center.

Last reported at 2018-Apr-21 19:00 UTC. Time now 2018-Apr-21 19:01 UTC.
Position N 40°43' W 074°07'.

Length 89 m; draft 5 m.

Type: Tanker. MMSI: 367597640.

Date/timePositionNaut miles runAvg speedWind from/ knotsBaromVisibWave heightAir tempDewpointWater temp
2018-Apr-21 19:00N 40°43' W 074°07'0 0.2
2018-Apr-21 18:30N 40°43' W 074°07'0 0.0
2018-Apr-21 18:00N 40°43' W 074°07'0 0.0
2018-Apr-21 17:26N 40°43' W 074°07'0 0.0
2018-Apr-21 16:59N 40°43' W 074°07'2 3.6
2018-Apr-21 16:30N 40°41' W 074°08'1 2.8
2018-Apr-21 15:59N 40°40' W 074°08'3 6.7
2018-Apr-21 15:30N 40°39' W 074°04'2 3.7
2018-Apr-21 15:01N 40°39' W 074°02'0 0.0
2018-Apr-21 14:31N 40°39' W 074°02'0 0.0
2018-Apr-21 14:00N 40°39' W 074°02'0 0.0
2018-Apr-21 13:30N 40°39' W 074°02'0 0.0
2018-Apr-21 13:01N 40°39' W 074°02'3 6.1
2018-Apr-21 12:31N 40°41' W 074°00'4 7.7
2018-Apr-21 12:00N 40°44' W 073°57'0 0.1
2018-Apr-21 11:22N 40°44' W 073°57'0 0.0
2018-Apr-21 11:00N 40°44' W 073°57'0 0.0
2018-Apr-21 10:30N 40°44' W 073°57'0 0.0
2018-Apr-21 10:00N 40°44' W 073°57'0 0.0
2018-Apr-21 09:30N 40°44' W 073°57'0 0.0
2018-Apr-21 09:00N 40°44' W 073°57'0 0.0
2018-Apr-21 08:30N 40°44' W 073°57'0 0.0
2018-Apr-21 08:00N 40°44' W 073°57'0 0.0
2018-Apr-21 07:30N 40°44' W 073°57'0 0.0
2018-Apr-21 07:00N 40°44' W 073°57'0 0.0
2018-Apr-21 06:30N 40°44' W 073°57'0 0.0
2018-Apr-21 06:00N 40°44' W 073°57'0 0.0
2018-Apr-21 05:30N 40°44' W 073°57'0 0.0
2018-Apr-21 04:59N 40°44' W 073°57'0 0.0
2018-Apr-21 04:30N 40°44' W 073°57'0 0.0
2018-Apr-21 04:00N 40°44' W 073°57'0 0.0
2018-Apr-21 03:31N 40°44' W 073°57'0 0.0
2018-Apr-21 03:00N 40°44' W 073°57'0 0.0
2018-Apr-21 02:30N 40°44' W 073°57'0 0.0
2018-Apr-21 02:01N 40°44' W 073°57'0 0.0
2018-Apr-21 01:29N 40°44' W 073°57'0 0.0
2018-Apr-21 01:00N 40°44' W 073°57'0 0.0
2018-Apr-21 00:30N 40°44' W 073°57'0 0.0
2018-Apr-20 23:49N 40°44' W 073°57'0 0.0
2018-Apr-20 23:29N 40°44' W 073°57'0 0.0
2018-Apr-20 22:59N 40°44' W 073°57'0 0.0
2018-Apr-20 22:27N 40°44' W 073°57'0 0.0
2018-Apr-20 22:00N 40°44' W 073°57'0 0.0
2018-Apr-20 21:29N 40°44' W 073°57'0 0.0
2018-Apr-20 21:00N 40°44' W 073°57'0 0.8
2018-Apr-20 20:30N 40°44' W 073°57'0 0.8
2018-Apr-20 20:00N 40°44' W 073°58'1 2.8
2018-Apr-20 19:31N 40°43' W 073°58'4 7.6
2018-Apr-20 19:01N 40°40' W 074°02'510.3
2018-Apr-20 18:30N 40°39' W 074°08'4 8.7
2018-Apr-20 18:00N 40°43' W 074°07'0 0.0
2018-Apr-20 17:30N 40°43' W 074°07'0 0.0
2018-Apr-20 17:01N 40°43' W 074°07'0 0.0
2018-Apr-20 16:28N 40°43' W 074°07'0 0.0
2018-Apr-20 16:00N 40°43' W 074°07'2 4.4
2018-Apr-20 15:30N 40°41' W 074°08'2 4.6
2018-Apr-20 14:59N 40°39' W 074°06'4 9.4
2018-Apr-20 14:31N 40°41' W 074°01'4 7.2
2018-Apr-20 14:00N 40°44' W 073°58'1 1.8
2018-Apr-20 13:30N 40°44' W 073°57'0 0.0
2018-Apr-20 13:00N 40°44' W 073°57'0 0.0
2018-Apr-20 12:30N 40°44' W 073°57'0 0.0
2018-Apr-20 11:50N 40°44' W 073°57'0 0.0
2018-Apr-20 11:30N 40°44' W 073°57'0 0.0
2018-Apr-20 11:00N 40°44' W 073°57'0 0.0
2018-Apr-20 10:30N 40°44' W 073°57'0 0.0
2018-Apr-20 10:00N 40°44' W 073°57'0 0.0
2018-Apr-20 09:30N 40°44' W 073°57'0 0.0
2018-Apr-20 09:00N 40°44' W 073°57'0 0.0
2018-Apr-20 08:30N 40°44' W 073°57'0 0.0
2018-Apr-20 08:00N 40°44' W 073°57'0 0.0
2018-Apr-20 07:27N 40°44' W 073°57'0 0.0
2018-Apr-20 07:00N 40°44' W 073°57'0 0.0
2018-Apr-20 06:30N 40°44' W 073°57'0 0.0
2018-Apr-20 06:00N 40°44' W 073°57'0 0.0
2018-Apr-20 05:30N 40°44' W 073°57'0 0.0
2018-Apr-20 05:00N 40°44' W 073°57'0 0.0
2018-Apr-20 04:31N 40°44' W 073°57'0 0.0
2018-Apr-20 04:00N 40°44' W 073°57'0 0.0
2018-Apr-20 03:30N 40°44' W 073°57'0 0.0
2018-Apr-20 03:00N 40°44' W 073°57'0 0.0
2018-Apr-20 02:30N 40°44' W 073°57'0 0.0
2018-Apr-20 02:00N 40°44' W 073°57'0 0.0
2018-Apr-20 01:30N 40°44' W 073°57'0 0.0
2018-Apr-20 01:00N 40°44' W 073°57'0 0.0
2018-Apr-20 00:29N 40°44' W 073°57'0 0.0
2018-Apr-20 00:00N 40°44' W 073°57'0 0.0
2018-Apr-19 23:30N 40°44' W 073°57'1 1.3
2018-Apr-19 23:00N 40°44' W 073°58'1 0.5
2018-Apr-19 20:25N 40°45' W 073°57'3 7.0
2018-Apr-19 19:59N 40°43' W 073°59'3 6.9
2018-Apr-19 19:31N 40°40' W 074°01'1 2.8
2018-Apr-19 19:00N 40°39' W 074°02'0 0.0
2018-Apr-19 18:31N 40°39' W 074°02'0 0.0
2018-Apr-19 18:01N 40°39' W 074°02'0 0.0
2018-Apr-19 17:31N 40°39' W 074°02'0 0.0
2018-Apr-19 17:01N 40°39' W 074°02'2 4.3
2018-Apr-19 16:30N 40°41' W 074°01'4 8.7
2018-Apr-19 16:00N 40°44' W 073°58'5 1.8
2018-Apr-19 13:16N 40°48' W 073°54'412.3
2018-Apr-19 12:58N 40°46' W 073°57'1 3.2
2018-Apr-19 12:30N 40°44' W 073°57'0 0.0
2018-Apr-19 12:00N 40°44' W 073°57'0 0.0
2018-Apr-19 11:30N 40°44' W 073°57'0 0.0
2018-Apr-19 11:00N 40°44' W 073°57'0 0.0
2018-Apr-19 10:29N 40°44' W 073°57'0 0.0
2018-Apr-19 10:00N 40°44' W 073°57'0 0.0
2018-Apr-19 09:30N 40°44' W 073°57'0 0.0
2018-Apr-19 09:00N 40°44' W 073°57'0 0.0
2018-Apr-19 08:30N 40°44' W 073°57'0 0.0
2018-Apr-19 08:01N 40°44' W 073°57'0 0.0
2018-Apr-19 07:30N 40°44' W 073°57'0 0.0
2018-Apr-19 07:00N 40°44' W 073°57'0 0.0
2018-Apr-19 06:30N 40°44' W 073°57'0 0.0
2018-Apr-19 06:00N 40°44' W 073°57'0 0.0
2018-Apr-19 05:30N 40°44' W 073°57'0 0.0
2018-Apr-19 05:01N 40°44' W 073°57'0 0.0
2018-Apr-19 04:29N 40°44' W 073°57'0 0.0
2018-Apr-19 04:00N 40°44' W 073°57'0 0.0
2018-Apr-19 03:30N 40°44' W 073°57'0 0.0
2018-Apr-19 03:00N 40°44' W 073°57'0 0.0
2018-Apr-19 02:30N 40°44' W 073°57'0 0.0
2018-Apr-19 02:00N 40°44' W 073°57'0 0.0
2018-Apr-19 01:30N 40°44' W 073°57'0 0.0
2018-Apr-19 01:00N 40°44' W 073°57'0 0.0
2018-Apr-19 00:30N 40°44' W 073°57'0 0.0
2018-Apr-19 00:00N 40°44' W 073°57'0 0.0
2018-Apr-18 23:05N 40°44' W 073°57'0 0.0
2018-Apr-18 22:39N 40°44' W 073°57'0 0.0
2018-Apr-18 22:30N 40°44' W 073°57'0 0.0
2018-Apr-18 21:58N 40°44' W 073°57'0 0.0
2018-Apr-18 21:30N 40°44' W 073°57'0 0.0
2018-Apr-18 21:00N 40°44' W 073°57'0 0.0
2018-Apr-18 20:31N 40°44' W 073°57'0 0.0
2018-Apr-18 20:00N 40°44' W 073°57'0 0.0
2018-Apr-18 19:30N 40°44' W 073°57'1 1.5
2018-Apr-18 19:00N 40°44' W 073°58'3 6.8
2018-Apr-18 18:30N 40°41' W 074°00'5 9.0
2018-Apr-18 18:00N 40°39' W 074°05'3 6.2
2018-Apr-18 17:29N 40°42' W 074°07'1 1.9
2018-Apr-18 17:00N 40°43' W 074°07'0 0.0
2018-Apr-18 16:31N 40°43' W 074°07'0 0.0
2018-Apr-18 16:01N 40°43' W 074°07'0 0.0
2018-Apr-18 15:31N 40°43' W 074°07'2 4.5
2018-Apr-18 15:01N 40°41' W 074°08'2 4.9
2018-Apr-18 14:31N 40°39' W 074°06'4 8.1
2018-Apr-18 14:01N 40°41' W 074°01'3 6.7
2018-Apr-18 13:31N 40°44' W 073°58'1 2.4
2018-Apr-18 13:00N 40°44' W 073°57'0 0.0
2018-Apr-18 12:30N 40°44' W 073°57'0 0.0
2018-Apr-18 12:00N 40°44' W 073°57'0 0.0
2018-Apr-18 11:31N 40°44' W 073°57'0 0.0
2018-Apr-18 11:00N 40°44' W 073°57'0 0.0
2018-Apr-18 10:31N 40°44' W 073°57'0 0.0
2018-Apr-18 10:00N 40°44' W 073°57'0 0.0
2018-Apr-18 09:31N 40°44' W 073°57'0 0.0
2018-Apr-18 09:00N 40°44' W 073°57'0 0.0
2018-Apr-18 08:31N 40°44' W 073°57'0 0.0
2018-Apr-18 08:01N 40°44' W 073°57'0 0.0
2018-Apr-18 07:31N 40°44' W 073°57'0 0.0
2018-Apr-18 07:00N 40°44' W 073°57'0 0.0
2018-Apr-18 06:30N 40°44' W 073°57'0 0.0
2018-Apr-18 06:00N 40°44' W 073°57'0 0.0
2018-Apr-18 05:30N 40°44' W 073°57'0 0.0
2018-Apr-18 05:00N 40°44' W 073°57'0 0.0
2018-Apr-18 04:30N 40°44' W 073°57'0 0.0
2018-Apr-18 04:00N 40°44' W 073°57'0 0.0
2018-Apr-18 03:30N 40°44' W 073°57'0 0.0
2018-Apr-18 03:00N 40°44' W 073°57'0 0.0
2018-Apr-18 02:30N 40°44' W 073°57'0 0.0
2018-Apr-18 02:00N 40°44' W 073°57'0 0.0
2018-Apr-18 01:31N 40°44' W 073°57'0 0.0
2018-Apr-18 01:00N 40°44' W 073°57'0 0.0
2018-Apr-18 00:30N 40°44' W 073°57'0 0.0
2018-Apr-18 00:00N 40°44' W 073°57'0 0.0
2018-Apr-17 23:30N 40°44' W 073°57'0 0.0
2018-Apr-17 23:00N 40°44' W 073°57'0 0.0
2018-Apr-17 22:30N 40°44' W 073°57'0 0.0
2018-Apr-17 22:00N 40°44' W 073°57'0 0.0
2018-Apr-17 21:30N 40°44' W 073°57'0 0.0
2018-Apr-17 21:00N 40°44' W 073°57'0 0.0
2018-Apr-17 20:30N 40°44' W 073°57'1 1.9
2018-Apr-17 20:00N 40°44' W 073°58'4 7.0
2018-Apr-17 19:30N 40°41' W 074°01'5 9.3
2018-Apr-17 19:00N 40°39' W 074°06'3 5.4
2018-Apr-17 18:30N 40°41' W 074°08'1 2.8
2018-Apr-17 18:01N 40°43' W 074°07'0 0.0
2018-Apr-17 17:30N 40°43' W 074°07'0 0.0
2018-Apr-17 16:56N 40°43' W 074°07'0 0.0
2018-Apr-17 16:30N 40°43' W 074°07'2 4.4
2018-Apr-17 16:00N 40°41' W 074°08'2 4.8
2018-Apr-17 15:30N 40°39' W 074°06'5 9.5
2018-Apr-17 15:01N 40°41' W 074°01'4 7.6
2018-Apr-17 14:30N 40°44' W 073°57'0 0.7
2018-Apr-17 13:49N 40°44' W 073°57'0 0.0
2018-Apr-17 13:30N 40°44' W 073°57'0 0.0
2018-Apr-17 13:00N 40°44' W 073°57'0 0.0
2018-Apr-17 12:30N 40°44' W 073°57'0 0.0
2018-Apr-17 12:01N 40°44' W 073°57'0 0.0
2018-Apr-17 11:30N 40°44' W 073°57'0 0.0
2018-Apr-17 11:00N 40°44' W 073°57'0 0.0
2018-Apr-17 10:30N 40°44' W 073°57'0 0.0
2018-Apr-17 10:00N 40°44' W 073°57'0 0.0
2018-Apr-17 09:30N 40°44' W 073°57'0 0.0
2018-Apr-17 09:00N 40°44' W 073°57'0 0.0
2018-Apr-17 08:31N 40°44' W 073°57'0 0.0
2018-Apr-17 08:00N 40°44' W 073°57'0 0.0
2018-Apr-17 07:30N 40°44' W 073°57'0 0.0
2018-Apr-17 07:00N 40°44' W 073°57'0 0.0
2018-Apr-17 06:30N 40°44' W 073°57'0 0.0
2018-Apr-17 06:00N 40°44' W 073°57'0 0.0
2018-Apr-17 05:31N 40°44' W 073°57'0 0.0
2018-Apr-17 05:01N 40°44' W 073°57'0 0.0
2018-Apr-17 04:31N 40°44' W 073°57'0 0.0
2018-Apr-17 04:00N 40°44' W 073°57'0 0.0
2018-Apr-17 03:31N 40°44' W 073°57'0 0.0
2018-Apr-17 03:00N 40°44' W 073°57'0 0.0
2018-Apr-17 02:30N 40°44' W 073°57'0 0.0
2018-Apr-17 02:01N 40°44' W 073°57'0 0.0
2018-Apr-17 01:31N 40°44' W 073°57'0 0.0
2018-Apr-17 00:59N 40°44' W 073°57'0 0.0
2018-Apr-17 00:28N 40°44' W 073°57'0 0.0
2018-Apr-17 00:00N 40°44' W 073°57'0 0.0
2018-Apr-16 23:30N 40°44' W 073°57'0 0.0
2018-Apr-16 22:59N 40°44' W 073°57'1 2.7
2018-Apr-16 22:30N 40°45' W 073°57'2 0.5
2018-Apr-16 17:58N 40°47' W 073°55'3 6.0
2018-Apr-16 17:30N 40°45' W 073°58'1 2.2
2018-Apr-16 17:00N 40°44' W 073°57'0 0.0
2018-Apr-16 16:30N 40°44' W 073°57'0 0.0
2018-Apr-16 16:00N 40°44' W 073°57'0 0.0
2018-Apr-16 15:28N 40°44' W 073°57'0 0.0
2018-Apr-16 15:00N 40°44' W 073°57'0 0.0
2018-Apr-16 14:31N 40°44' W 073°57'1 2.1
2018-Apr-16 14:00N 40°44' W 073°58'4 7.9
2018-Apr-16 13:30N 40°47' W 073°55'1 2.2
2018-Apr-16 13:00N 40°47' W 073°54'0 0.0
2018-Apr-16 12:30N 40°47' W 073°54'0 0.0
2018-Apr-16 12:00N 40°47' W 073°54'0 0.0
2018-Apr-16 11:30N 40°47' W 073°54'0 0.0
2018-Apr-16 11:00N 40°47' W 073°54'0 0.0
2018-Apr-16 10:30N 40°47' W 073°54'0 0.0
2018-Apr-16 09:59N 40°47' W 073°54'0 0.0
2018-Apr-16 09:30N 40°47' W 073°54'0 0.0
2018-Apr-16 09:00N 40°47' W 073°54'0 0.0
2018-Apr-16 08:30N 40°47' W 073°54'0 0.0
2018-Apr-16 08:00N 40°47' W 073°54'0 0.0
2018-Apr-16 07:30N 40°47' W 073°54'0 0.0
2018-Apr-16 07:00N 40°47' W 073°54'0 0.0
2018-Apr-16 06:30N 40°47' W 073°54'0 0.0
2018-Apr-16 06:00N 40°47' W 073°54'0 0.0
2018-Apr-16 05:30N 40°47' W 073°54'0 0.0
2018-Apr-16 05:01N 40°47' W 073°54'0 0.0
2018-Apr-16 04:30N 40°47' W 073°54'0 0.0
2018-Apr-16 04:00N 40°47' W 073°54'0 0.0
2018-Apr-16 03:30N 40°47' W 073°54'0 0.0
2018-Apr-16 03:00N 40°47' W 073°54'0 0.0
2018-Apr-16 02:30N 40°47' W 073°54'0 0.0
2018-Apr-16 02:00N 40°47' W 073°54'0 0.0
2018-Apr-16 01:30N 40°47' W 073°54'0 0.0
2018-Apr-16 00:58N 40°47' W 073°54'0 0.0
2018-Apr-16 00:30N 40°47' W 073°54'0 0.0
2018-Apr-16 00:00N 40°47' W 073°54'0 0.0
2018-Apr-15 23:30N 40°47' W 073°54'0 0.0
2018-Apr-15 23:00N 40°47' W 073°54'0 0.0
2018-Apr-15 22:31N 40°47' W 073°54'0 0.0
2018-Apr-15 22:00N 40°47' W 073°54'0 0.0
2018-Apr-15 21:30N 40°47' W 073°54'0 0.0
2018-Apr-15 21:00N 40°47' W 073°54'0 0.0
2018-Apr-15 20:30N 40°47' W 073°54'0 0.0
2018-Apr-15 19:59N 40°47' W 073°54'0 0.0
2018-Apr-15 19:30N 40°47' W 073°54'0 0.0
2018-Apr-15 19:00N 40°47' W 073°54'0 0.0
2018-Apr-15 18:30N 40°47' W 073°54'0 0.0
2018-Apr-15 18:01N 40°47' W 073°54'0 0.0
2018-Apr-15 17:30N 40°47' W 073°54'0 0.0
2018-Apr-15 16:59N 40°47' W 073°54'0 0.0
2018-Apr-15 16:30N 40°47' W 073°54'0 0.0
2018-Apr-15 15:59N 40°47' W 073°54'0 0.0
2018-Apr-15 15:30N 40°47' W 073°54'0 0.0
2018-Apr-15 14:58N 40°47' W 073°54'0 0.0
2018-Apr-15 14:30N 40°47' W 073°54'0 0.0
2018-Apr-15 14:00N 40°47' W 073°54'0 0.0
2018-Apr-15 13:30N 40°47' W 073°54'0 0.0
2018-Apr-15 13:00N 40°47' W 073°54'0 0.0
2018-Apr-15 12:29N 40°47' W 073°54'0 0.0
2018-Apr-15 12:00N 40°47' W 073°54'0 0.0
2018-Apr-15 11:31N 40°47' W 073°54'0 0.0
2018-Apr-15 11:00N 40°47' W 073°54'0 0.0
2018-Apr-15 10:30N 40°47' W 073°54'0 0.0
2018-Apr-15 10:00N 40°47' W 073°54'0 0.0
2018-Apr-15 09:29N 40°47' W 073°54'0 0.0
2018-Apr-15 09:00N 40°47' W 073°54'0 0.0
2018-Apr-15 08:30N 40°47' W 073°54'0 0.0
2018-Apr-15 08:00N 40°47' W 073°54'0 0.0
2018-Apr-15 07:30N 40°47' W 073°54'0 0.0
2018-Apr-15 07:00N 40°47' W 073°54'0 0.0
2018-Apr-15 06:30N 40°47' W 073°54'0 0.0
2018-Apr-15 06:00N 40°47' W 073°54'0 0.0
2018-Apr-15 05:30N 40°47' W 073°54'0 0.0
2018-Apr-15 05:00N 40°47' W 073°54'0 0.0
2018-Apr-15 04:30N 40°47' W 073°54'0 0.0
2018-Apr-15 04:00N 40°47' W 073°54'0 0.0
2018-Apr-15 03:30N 40°47' W 073°54'0 0.0
2018-Apr-15 03:00N 40°47' W 073°54'0 0.0
2018-Apr-15 02:30N 40°47' W 073°54'0 0.0
2018-Apr-15 01:59N 40°47' W 073°54'0 0.0
2018-Apr-15 01:30N 40°47' W 073°54'0 0.0
2018-Apr-15 01:00N 40°47' W 073°54'0 0.0
2018-Apr-15 00:30N 40°47' W 073°54'0 0.0
2018-Apr-15 00:00N 40°47' W 073°54'0 0.0
2018-Apr-14 23:30N 40°47' W 073°54'0 0.0
2018-Apr-14 23:00N 40°47' W 073°54'0 0.0
2018-Apr-14 22:30N 40°47' W 073°54'0 0.0
2018-Apr-14 22:00N 40°47' W 073°54'0 0.0
2018-Apr-14 21:30N 40°47' W 073°54'0 0.0
2018-Apr-14 21:00N 40°47' W 073°54'0 0.0
2018-Apr-14 20:30N 40°47' W 073°54'0 0.0
2018-Apr-14 20:00N 40°47' W 073°54'0 0.0
2018-Apr-14 19:28N 40°47' W 073°54'0 0.0
2018-Apr-14 18:59N 40°47' W 073°54'0 0.0
2018-Apr-14 18:30N 40°47' W 073°54'0 0.0
2018-Apr-14 17:59N 40°47' W 073°54'0 0.0
2018-Apr-14 17:30N 40°47' W 073°54'0 0.0
2018-Apr-14 16:59N 40°47' W 073°54'0 0.0
2018-Apr-14 16:29N 40°47' W 073°54'0 0.0
2018-Apr-14 16:00N 40°47' W 073°54'0 0.0
2018-Apr-14 15:30N 40°47' W 073°54'0 0.0
2018-Apr-14 15:01N 40°47' W 073°54'0 0.0
2018-Apr-14 14:30N 40°47' W 073°54'0 0.0
2018-Apr-14 14:00N 40°47' W 073°54'0 0.0
2018-Apr-14 13:29N 40°47' W 073°54'0 0.0
2018-Apr-14 12:59N 40°47' W 073°54'0 0.0
2018-Apr-14 12:30N 40°47' W 073°54'0 0.0
2018-Apr-14 12:00N 40°47' W 073°54'0 0.0
2018-Apr-14 11:30N 40°47' W 073°54'0 0.0
2018-Apr-14 11:00N 40°47' W 073°54'0 0.0
2018-Apr-14 10:30N 40°47' W 073°54'0 0.0
2018-Apr-14 10:00N 40°47' W 073°54'0 0.0
2018-Apr-14 09:30N 40°47' W 073°54'0 0.0
2018-Apr-14 09:00N 40°47' W 073°54'0 0.0
2018-Apr-14 08:30N 40°47' W 073°54'0 0.0
2018-Apr-14 08:00N 40°47' W 073°54'0 0.0
2018-Apr-14 07:28N 40°47' W 073°54'0 0.0
2018-Apr-14 07:01N 40°47' W 073°54'0 0.0
2018-Apr-14 06:30N 40°47' W 073°54'0 0.0
2018-Apr-14 06:00N 40°47' W 073°54'0 0.0
2018-Apr-14 05:30N 40°47' W 073°54'0 0.0
2018-Apr-14 05:00N 40°47' W 073°54'0 0.0
2018-Apr-14 04:30N 40°47' W 073°54'0 0.0
2018-Apr-14 03:59N 40°47' W 073°54'0 0.0
2018-Apr-14 03:30N 40°47' W 073°54'0 0.0
2018-Apr-14 03:00N 40°47' W 073°54'0 0.0
2018-Apr-14 02:30N 40°47' W 073°54'0 0.0
2018-Apr-14 02:00N 40°47' W 073°54'0 0.0
2018-Apr-14 01:30N 40°47' W 073°54'0 0.0
2018-Apr-14 01:00N 40°47' W 073°54'0 0.0
2018-Apr-14 00:29N 40°47' W 073°54'0 0.0
2018-Apr-14 00:00N 40°47' W 073°54'0 0.0
2018-Apr-13 23:30N 40°47' W 073°54'0 0.0
2018-Apr-13 23:00N 40°47' W 073°54'0 0.0
2018-Apr-13 22:30N 40°47' W 073°54'0 0.0
2018-Apr-13 21:58N 40°47' W 073°54'0 0.0
2018-Apr-13 21:30N 40°47' W 073°54'0 0.0
2018-Apr-13 20:59N 40°47' W 073°54'0 0.0
2018-Apr-13 20:30N 40°47' W 073°54'0 0.0
2018-Apr-13 20:00N 40°47' W 073°54'1 2.2
2018-Apr-13 19:30N 40°48' W 073°55'4 8.8
2018-Apr-13 19:00N 40°44' W 073°58'5 9.1
2018-Apr-13 18:31N 40°41' W 074°02'5 9.3
2018-Apr-13 18:00N 40°39' W 074°07'4 7.3
2018-Apr-13 17:30N 40°42' W 074°07'0 1.0
2018-Apr-13 17:01N 40°43' W 074°07'0 0.0
2018-Apr-13 16:30N 40°43' W 074°07'0 0.0
2018-Apr-13 16:00N 40°43' W 074°07'2 3.6
2018-Apr-13 15:30N 40°41' W 074°08'2 4.9
2018-Apr-13 15:00N 40°39' W 074°06'3 6.2
2018-Apr-13 14:30N 40°39' W 074°02'0 0.0
2018-Apr-13 14:00N 40°39' W 074°02'0 0.0
2018-Apr-13 13:30N 40°39' W 074°02'0 0.0
2018-Apr-13 13:01N 40°39' W 074°02'1 2.3
2018-Apr-13 12:31N 40°40' W 074°01'8 8.3
2018-Apr-13 11:30N 40°47' W 073°56'1 1.3
2018-Apr-13 11:00N 40°47' W 073°55'0 0.0
2018-Apr-13 10:30N 40°47' W 073°55'0 0.0
2018-Apr-13 10:00N 40°47' W 073°55'0 0.0
2018-Apr-13 09:30N 40°47' W 073°55'0 0.0
2018-Apr-13 09:00N 40°47' W 073°55'0 0.0
2018-Apr-13 08:30N 40°47' W 073°55'0 0.0
2018-Apr-13 08:00N 40°47' W 073°55'0 0.0
2018-Apr-13 07:30N 40°47' W 073°55'0 0.0
2018-Apr-13 07:00N 40°47' W 073°55'0 0.0
2018-Apr-13 06:30N 40°47' W 073°55'0 0.0
2018-Apr-13 06:00N 40°47' W 073°55'0 0.0
2018-Apr-13 05:30N 40°47' W 073°55'0 0.0
2018-Apr-13 05:00N 40°47' W 073°55'0 0.0
2018-Apr-13 04:30N 40°47' W 073°55'0 0.0
2018-Apr-13 04:00N 40°47' W 073°55'0 0.0
2018-Apr-13 03:30N 40°47' W 073°55'0 0.0
2018-Apr-13 03:00N 40°47' W 073°55'0 0.0
2018-Apr-13 02:30N 40°47' W 073°55'0 0.0
2018-Apr-13 01:59N 40°47' W 073°55'0 0.0
2018-Apr-13 01:30N 40°47' W 073°55'0 0.0
2018-Apr-13 01:00N 40°47' W 073°55'0 0.0
2018-Apr-13 00:28N 40°47' W 073°55'0 0.0
2018-Apr-13 00:00N 40°47' W 073°55'0 0.0
2018-Apr-12 23:24N 40°47' W 073°55'0 0.0
2018-Apr-12 22:59N 40°47' W 073°55'0 0.0
2018-Apr-12 22:27N 40°47' W 073°55'3 6.0
2018-Apr-12 22:00N 40°45' W 073°57'4 8.4
2018-Apr-12 21:30N 40°42' W 074°01'510.0
2018-Apr-12 21:00N 40°47' W 073°60'3 5.4
2018-Apr-12 20:30N 40°49' W 073°58'0 0.0
2018-Apr-12 20:00N 40°49' W 073°58'0 0.0
2018-Apr-12 19:29N 40°49' W 073°58'0 0.0
2018-Apr-12 19:00N 40°49' W 073°58'1 1.4
2018-Apr-12 18:30N 40°49' W 073°58'4 8.5
2018-Apr-12 18:00N 40°45' W 074°01'4 8.8
2018-Apr-12 17:30N 40°41' W 074°02'5 9.3
2018-Apr-12 17:00N 40°39' W 074°07'0 0.2
2018-Apr-12 16:30N 40°38' W 074°08'0 0.0
2018-Apr-12 16:00N 40°38' W 074°08'0 0.0
2018-Apr-12 15:30N 40°38' W 074°08'2 4.6
2018-Apr-12 15:00N 40°39' W 074°05'2 4.1
2018-Apr-12 14:30N 40°39' W 074°02'0 0.0
2018-Apr-12 14:00N 40°39' W 074°02'0 0.0
2018-Apr-12 13:30N 40°39' W 074°02'0 0.0
2018-Apr-12 13:00N 40°39' W 074°02'0 0.0
2018-Apr-12 12:30N 40°39' W 074°02'4 7.5
2018-Apr-12 12:00N 40°42' W 074°00'4 8.4
2018-Apr-12 11:30N 40°46' W 073°57'2 4.3
2018-Apr-12 10:58N 40°47' W 073°55'0 0.0
2018-Apr-12 10:30N 40°47' W 073°55'0 0.0
2018-Apr-12 10:00N 40°47' W 073°55'0 0.0
2018-Apr-12 09:30N 40°47' W 073°55'0 0.0
2018-Apr-12 09:00N 40°47' W 073°55'0 0.0
2018-Apr-12 08:30N 40°47' W 073°55'0 0.0
2018-Apr-12 08:00N 40°47' W 073°55'0 0.0
2018-Apr-12 07:30N 40°47' W 073°55'0 0.0
2018-Apr-12 07:00N 40°47' W 073°55'0 0.0
2018-Apr-12 06:30N 40°47' W 073°55'0 0.0
2018-Apr-12 06:00N 40°47' W 073°55'0 0.0
2018-Apr-12 05:30N 40°47' W 073°55'0 0.0
2018-Apr-12 04:59N 40°47' W 073°55'0 0.0
2018-Apr-12 04:30N 40°47' W 073°55'0 0.0
2018-Apr-12 03:59N 40°47' W 073°55'0 0.0
2018-Apr-12 03:30N 40°47' W 073°55'0 0.0
2018-Apr-12 03:00N 40°47' W 073°55'0 0.0
2018-Apr-12 02:30N 40°47' W 073°55'0 0.0
2018-Apr-12 01:59N 40°47' W 073°55'0 0.0
2018-Apr-12 01:30N 40°47' W 073°55'0 0.0
2018-Apr-12 01:00N 40°47' W 073°55'0 0.0
2018-Apr-12 00:30N 40°47' W 073°55'0 0.0
2018-Apr-12 00:00N 40°47' W 073°55'0 0.0
2018-Apr-11 23:30N 40°47' W 073°55'0 0.0
2018-Apr-11 22:59N 40°47' W 073°55'0 0.0
2018-Apr-11 22:30N 40°47' W 073°55'2 4.4
2018-Apr-11 22:00N 40°46' W 073°57'611.7
2018-Apr-11 21:30N 40°41' W 074°01'510.7
2018-Apr-11 21:00N 40°36' W 074°02'4 8.5
2018-Apr-11 20:30N 40°34' W 073°57'4 6.6
2018-Apr-11 19:50N 40°37' W 073°53'  
Track history (hours):
 
Tides and Currents Weather Stations Pressure Air Temp Water Temp Dewpoint Dewpoint Depression Visibility Wind Speed Wind Dir Waves Ship Positions

Port Richmond

Owner: NEW YORK, CITY OF, BROOKLYN, NY. More information available from US FCC via Universal Licensing System and Coast Guard Vessel Documentation Center.

Last reported at 2018-Apr-21 19:00 UTC. Time now 2018-Apr-21 19:01 UTC.
Position N 40°43' W 074°07'.

Length 89 m; draft 5 m.

Type: Tanker. MMSI: 367597640.

Date/timePositionNaut miles runAvg speedWind from/ knotsBaromVisibWave heightAir tempDewpointWater temp
2018-Apr-21 19:00N 40°43' W 074°07'0 0.2
2018-Apr-21 18:30N 40°43' W 074°07'0 0.0
2018-Apr-21 18:00N 40°43' W 074°07'0 0.0
2018-Apr-21 17:26N 40°43' W 074°07'0 0.0
2018-Apr-21 16:59N 40°43' W 074°07'2 3.6
2018-Apr-21 16:30N 40°41' W 074°08'1 2.8
2018-Apr-21 15:59N 40°40' W 074°08'3 6.7
2018-Apr-21 15:30N 40°39' W 074°04'2 3.7
2018-Apr-21 15:01N 40°39' W 074°02'0 0.0
2018-Apr-21 14:31N 40°39' W 074°02'0 0.0
2018-Apr-21 14:00N 40°39' W 074°02'0 0.0
2018-Apr-21 13:30N 40°39' W 074°02'0 0.0
2018-Apr-21 13:01N 40°39' W 074°02'3 6.1
2018-Apr-21 12:31N 40°41' W 074°00'4 7.7
2018-Apr-21 12:00N 40°44' W 073°57'0 0.1
2018-Apr-21 11:22N 40°44' W 073°57'0 0.0
2018-Apr-21 11:00N 40°44' W 073°57'0 0.0
2018-Apr-21 10:30N 40°44' W 073°57'0 0.0
2018-Apr-21 10:00N 40°44' W 073°57'0 0.0
2018-Apr-21 09:30N 40°44' W 073°57'0 0.0
2018-Apr-21 09:00N 40°44' W 073°57'0 0.0
2018-Apr-21 08:30N 40°44' W 073°57'0 0.0
2018-Apr-21 08:00N 40°44' W 073°57'0 0.0
2018-Apr-21 07:30N 40°44' W 073°57'0 0.0
2018-Apr-21 07:00N 40°44' W 073°57'0 0.0
2018-Apr-21 06:30N 40°44' W 073°57'0 0.0
2018-Apr-21 06:00N 40°44' W 073°57'0 0.0
2018-Apr-21 05:30N 40°44' W 073°57'0 0.0
2018-Apr-21 04:59N 40°44' W 073°57'0 0.0
2018-Apr-21 04:30N 40°44' W 073°57'0 0.0
2018-Apr-21 04:00N 40°44' W 073°57'0 0.0
2018-Apr-21 03:31N 40°44' W 073°57'0 0.0
2018-Apr-21 03:00N 40°44' W 073°57'0 0.0
2018-Apr-21 02:30N 40°44' W 073°57'0 0.0
2018-Apr-21 02:01N 40°44' W 073°57'0 0.0
2018-Apr-21 01:29N 40°44' W 073°57'0 0.0
2018-Apr-21 01:00N 40°44' W 073°57'0 0.0
2018-Apr-21 00:30N 40°44' W 073°57'0 0.0
2018-Apr-20 23:49N 40°44' W 073°57'0 0.0
2018-Apr-20 23:29N 40°44' W 073°57'0 0.0
2018-Apr-20 22:59N 40°44' W 073°57'0 0.0
2018-Apr-20 22:27N 40°44' W 073°57'0 0.0
2018-Apr-20 22:00N 40°44' W 073°57'0 0.0
2018-Apr-20 21:29N 40°44' W 073°57'0 0.0
2018-Apr-20 21:00N 40°44' W 073°57'0 0.8
2018-Apr-20 20:30N 40°44' W 073°57'0 0.8
2018-Apr-20 20:00N 40°44' W 073°58'1 2.8
2018-Apr-20 19:31N 40°43' W 073°58'4 7.6
2018-Apr-20 19:01N 40°40' W 074°02'510.3
2018-Apr-20 18:30N 40°39' W 074°08'4 8.7
2018-Apr-20 18:00N 40°43' W 074°07'0 0.0
2018-Apr-20 17:30N 40°43' W 074°07'0 0.0
2018-Apr-20 17:01N 40°43' W 074°07'0 0.0
2018-Apr-20 16:28N 40°43' W 074°07'0 0.0
2018-Apr-20 16:00N 40°43' W 074°07'2 4.4
2018-Apr-20 15:30N 40°41' W 074°08'2 4.6
2018-Apr-20 14:59N 40°39' W 074°06'4 9.4
2018-Apr-20 14:31N 40°41' W 074°01'4 7.2
2018-Apr-20 14:00N 40°44' W 073°58'1 1.8
2018-Apr-20 13:30N 40°44' W 073°57'0 0.0
2018-Apr-20 13:00N 40°44' W 073°57'0 0.0
2018-Apr-20 12:30N 40°44' W 073°57'0 0.0
2018-Apr-20 11:50N 40°44' W 073°57'0 0.0
2018-Apr-20 11:30N 40°44' W 073°57'0 0.0
2018-Apr-20 11:00N 40°44' W 073°57'0 0.0
2018-Apr-20 10:30N 40°44' W 073°57'0 0.0
2018-Apr-20 10:00N 40°44' W 073°57'0 0.0
2018-Apr-20 09:30N 40°44' W 073°57'0 0.0
2018-Apr-20 09:00N 40°44' W 073°57'0 0.0
2018-Apr-20 08:30N 40°44' W 073°57'0 0.0
2018-Apr-20 08:00N 40°44' W 073°57'0 0.0
2018-Apr-20 07:27N 40°44' W 073°57'0 0.0
2018-Apr-20 07:00N 40°44' W 073°57'0 0.0
2018-Apr-20 06:30N 40°44' W 073°57'0 0.0
2018-Apr-20 06:00N 40°44' W 073°57'0 0.0
2018-Apr-20 05:30N 40°44' W 073°57'0 0.0
2018-Apr-20 05:00N 40°44' W 073°57'0 0.0
2018-Apr-20 04:31N 40°44' W 073°57'0 0.0
2018-Apr-20 04:00N 40°44' W 073°57'0 0.0
2018-Apr-20 03:30N 40°44' W 073°57'0 0.0
2018-Apr-20 03:00N 40°44' W 073°57'0 0.0
2018-Apr-20 02:30N 40°44' W 073°57'0 0.0
2018-Apr-20 02:00N 40°44' W 073°57'0 0.0
2018-Apr-20 01:30N 40°44' W 073°57'0 0.0
2018-Apr-20 01:00N 40°44' W 073°57'0 0.0
2018-Apr-20 00:29N 40°44' W 073°57'0 0.0
2018-Apr-20 00:00N 40°44' W 073°57'0 0.0
2018-Apr-19 23:30N 40°44' W 073°57'1 1.3
2018-Apr-19 23:00N 40°44' W 073°58'1 0.5
2018-Apr-19 20:25N 40°45' W 073°57'3 7.0
2018-Apr-19 19:59N 40°43' W 073°59'3 6.9
2018-Apr-19 19:31N 40°40' W 074°01'1 2.8
2018-Apr-19 19:00N 40°39' W 074°02'0 0.0
2018-Apr-19 18:31N 40°39' W 074°02'0 0.0
2018-Apr-19 18:01N 40°39' W 074°02'0 0.0
2018-Apr-19 17:31N 40°39' W 074°02'0 0.0
2018-Apr-19 17:01N 40°39' W 074°02'2 4.3
2018-Apr-19 16:30N 40°41' W 074°01'4 8.7
2018-Apr-19 16:00N 40°44' W 073°58'5 1.8
2018-Apr-19 13:16N 40°48' W 073°54'412.3
2018-Apr-19 12:58N 40°46' W 073°57'1 3.2
2018-Apr-19 12:30N 40°44' W 073°57'0 0.0
2018-Apr-19 12:00N 40°44' W 073°57'0 0.0
2018-Apr-19 11:30N 40°44' W 073°57'0 0.0
2018-Apr-19 11:00N 40°44' W 073°57'0 0.0
2018-Apr-19 10:29N 40°44' W 073°57'0 0.0
2018-Apr-19 10:00N 40°44' W 073°57'0 0.0
2018-Apr-19 09:30N 40°44' W 073°57'0 0.0
2018-Apr-19 09:00N 40°44' W 073°57'0 0.0
2018-Apr-19 08:30N 40°44' W 073°57'0 0.0
2018-Apr-19 08:01N 40°44' W 073°57'0 0.0
2018-Apr-19 07:30N 40°44' W 073°57'0 0.0
2018-Apr-19 07:00N 40°44' W 073°57'0 0.0
2018-Apr-19 06:30N 40°44' W 073°57'0 0.0
2018-Apr-19 06:00N 40°44' W 073°57'0 0.0
2018-Apr-19 05:30N 40°44' W 073°57'0 0.0
2018-Apr-19 05:01N 40°44' W 073°57'0 0.0
2018-Apr-19 04:29N 40°44' W 073°57'0 0.0
2018-Apr-19 04:00N 40°44' W 073°57'0 0.0
2018-Apr-19 03:30N 40°44' W 073°57'0 0.0
2018-Apr-19 03:00N 40°44' W 073°57'0 0.0
2018-Apr-19 02:30N 40°44' W 073°57'0 0.0
2018-Apr-19 02:00N 40°44' W 073°57'0 0.0
2018-Apr-19 01:30N 40°44' W 073°57'0 0.0
2018-Apr-19 01:00N 40°44' W 073°57'0 0.0
2018-Apr-19 00:30N 40°44' W 073°57'0 0.0
2018-Apr-19 00:00N 40°44' W 073°57'0 0.0
2018-Apr-18 23:05N 40°44' W 073°57'0 0.0
2018-Apr-18 22:39N 40°44' W 073°57'0 0.0
2018-Apr-18 22:30N 40°44' W 073°57'0 0.0
2018-Apr-18 21:58N 40°44' W 073°57'0 0.0
2018-Apr-18 21:30N 40°44' W 073°57'0 0.0
2018-Apr-18 21:00N 40°44' W 073°57'0 0.0
2018-Apr-18 20:31N 40°44' W 073°57'0 0.0
2018-Apr-18 20:00N 40°44' W 073°57'0 0.0
2018-Apr-18 19:30N 40°44' W 073°57'1 1.5
2018-Apr-18 19:00N 40°44' W 073°58'3 6.8
2018-Apr-18 18:30N 40°41' W 074°00'5 9.0
2018-Apr-18 18:00N 40°39' W 074°05'3 6.2
2018-Apr-18 17:29N 40°42' W 074°07'1 1.9
2018-Apr-18 17:00N 40°43' W 074°07'0 0.0
2018-Apr-18 16:31N 40°43' W 074°07'0 0.0
2018-Apr-18 16:01N 40°43' W 074°07'0 0.0
2018-Apr-18 15:31N 40°43' W 074°07'2 4.5
2018-Apr-18 15:01N 40°41' W 074°08'2 4.9
2018-Apr-18 14:31N 40°39' W 074°06'4 8.1
2018-Apr-18 14:01N 40°41' W 074°01'3 6.7
2018-Apr-18 13:31N 40°44' W 073°58'1 2.4
2018-Apr-18 13:00N 40°44' W 073°57'0 0.0
2018-Apr-18 12:30N 40°44' W 073°57'0 0.0
2018-Apr-18 12:00N 40°44' W 073°57'0 0.0
2018-Apr-18 11:31N 40°44' W 073°57'0 0.0
2018-Apr-18 11:00N 40°44' W 073°57'0 0.0
2018-Apr-18 10:31N 40°44' W 073°57'0 0.0
2018-Apr-18 10:00N 40°44' W 073°57'0 0.0
2018-Apr-18 09:31N 40°44' W 073°57'0 0.0
2018-Apr-18 09:00N 40°44' W 073°57'0 0.0
2018-Apr-18 08:31N 40°44' W 073°57'0 0.0
2018-Apr-18 08:01N 40°44' W 073°57'0 0.0
2018-Apr-18 07:31N 40°44' W 073°57'0 0.0
2018-Apr-18 07:00N 40°44' W 073°57'0 0.0
2018-Apr-18 06:30N 40°44' W 073°57'0 0.0
2018-Apr-18 06:00N 40°44' W 073°57'0 0.0
2018-Apr-18 05:30N 40°44' W 073°57'0 0.0
2018-Apr-18 05:00N 40°44' W 073°57'0 0.0
2018-Apr-18 04:30N 40°44' W 073°57'0 0.0
2018-Apr-18 04:00N 40°44' W 073°57'0 0.0
2018-Apr-18 03:30N 40°44' W 073°57'0 0.0
2018-Apr-18 03:00N 40°44' W 073°57'0 0.0
2018-Apr-18 02:30N 40°44' W 073°57'0 0.0
2018-Apr-18 02:00N 40°44' W 073°57'0 0.0
2018-Apr-18 01:31N 40°44' W 073°57'0 0.0
2018-Apr-18 01:00N 40°44' W 073°57'0 0.0
2018-Apr-18 00:30N 40°44' W 073°57'0 0.0
2018-Apr-18 00:00N 40°44' W 073°57'0 0.0
2018-Apr-17 23:30N 40°44' W 073°57'0 0.0
2018-Apr-17 23:00N 40°44' W 073°57'0 0.0
2018-Apr-17 22:30N 40°44' W 073°57'0 0.0
2018-Apr-17 22:00N 40°44' W 073°57'0 0.0
2018-Apr-17 21:30N 40°44' W 073°57'0 0.0
2018-Apr-17 21:00N 40°44' W 073°57'0 0.0
2018-Apr-17 20:30N 40°44' W 073°57'1 1.9
2018-Apr-17 20:00N 40°44' W 073°58'4 7.0
2018-Apr-17 19:30N 40°41' W 074°01'5 9.3
2018-Apr-17 19:00N 40°39' W 074°06'3 5.4
2018-Apr-17 18:30N 40°41' W 074°08'1 2.8
2018-Apr-17 18:01N 40°43' W 074°07'0 0.0
2018-Apr-17 17:30N 40°43' W 074°07'0 0.0
2018-Apr-17 16:56N 40°43' W 074°07'0 0.0
2018-Apr-17 16:30N 40°43' W 074°07'2 4.4
2018-Apr-17 16:00N 40°41' W 074°08'2 4.8
2018-Apr-17 15:30N 40°39' W 074°06'5 9.5
2018-Apr-17 15:01N 40°41' W 074°01'4 7.6
2018-Apr-17 14:30N 40°44' W 073°57'0 0.7
2018-Apr-17 13:49N 40°44' W 073°57'0 0.0
2018-Apr-17 13:30N 40°44' W 073°57'0 0.0
2018-Apr-17 13:00N 40°44' W 073°57'0 0.0
2018-Apr-17 12:30N 40°44' W 073°57'0 0.0
2018-Apr-17 12:01N 40°44' W 073°57'0 0.0
2018-Apr-17 11:30N 40°44' W 073°57'0 0.0
2018-Apr-17 11:00N 40°44' W 073°57'0 0.0
2018-Apr-17 10:30N 40°44' W 073°57'0 0.0
2018-Apr-17 10:00N 40°44' W 073°57'0 0.0
2018-Apr-17 09:30N 40°44' W 073°57'0 0.0
2018-Apr-17 09:00N 40°44' W 073°57'0 0.0
2018-Apr-17 08:31N 40°44' W 073°57'0 0.0
2018-Apr-17 08:00N 40°44' W 073°57'0 0.0
2018-Apr-17 07:30N 40°44' W 073°57'0 0.0
2018-Apr-17 07:00N 40°44' W 073°57'0 0.0
2018-Apr-17 06:30N 40°44' W 073°57'0 0.0
2018-Apr-17 06:00N 40°44' W 073°57'0 0.0
2018-Apr-17 05:31N 40°44' W 073°57'0 0.0
2018-Apr-17 05:01N 40°44' W 073°57'0 0.0
2018-Apr-17 04:31N 40°44' W 073°57'0 0.0
2018-Apr-17 04:00N 40°44' W 073°57'0 0.0
2018-Apr-17 03:31N 40°44' W 073°57'0 0.0
2018-Apr-17 03:00N 40°44' W 073°57'0 0.0
2018-Apr-17 02:30N 40°44' W 073°57'0 0.0
2018-Apr-17 02:01N 40°44' W 073°57'0 0.0
2018-Apr-17 01:31N 40°44' W 073°57'0 0.0
2018-Apr-17 00:59N 40°44' W 073°57'0 0.0
2018-Apr-17 00:28N 40°44' W 073°57'0 0.0
2018-Apr-17 00:00N 40°44' W 073°57'0 0.0
2018-Apr-16 23:30N 40°44' W 073°57'0 0.0
2018-Apr-16 22:59N 40°44' W 073°57'1 2.7
2018-Apr-16 22:30N 40°45' W 073°57'2 0.5
2018-Apr-16 17:58N 40°47' W 073°55'3 6.0
2018-Apr-16 17:30N 40°45' W 073°58'1 2.2
2018-Apr-16 17:00N 40°44' W 073°57'0 0.0
2018-Apr-16 16:30N 40°44' W 073°57'0 0.0
2018-Apr-16 16:00N 40°44' W 073°57'0 0.0
2018-Apr-16 15:28N 40°44' W 073°57'0 0.0
2018-Apr-16 15:00N 40°44' W 073°57'0 0.0
2018-Apr-16 14:31N 40°44' W 073°57'1 2.1
2018-Apr-16 14:00N 40°44' W 073°58'4 7.9
2018-Apr-16 13:30N 40°47' W 073°55'1 2.2
2018-Apr-16 13:00N 40°47' W 073°54'0 0.0
2018-Apr-16 12:30N 40°47' W 073°54'0 0.0
2018-Apr-16 12:00N 40°47' W 073°54'0 0.0
2018-Apr-16 11:30N 40°47' W 073°54'0 0.0
2018-Apr-16 11:00N 40°47' W 073°54'0 0.0
2018-Apr-16 10:30N 40°47' W 073°54'0 0.0
2018-Apr-16 09:59N 40°47' W 073°54'0 0.0
2018-Apr-16 09:30N 40°47' W 073°54'0 0.0
2018-Apr-16 09:00N 40°47' W 073°54'0 0.0
2018-Apr-16 08:30N 40°47' W 073°54'0 0.0
2018-Apr-16 08:00N 40°47' W 073°54'0 0.0
2018-Apr-16 07:30N 40°47' W 073°54'0 0.0
2018-Apr-16 07:00N 40°47' W 073°54'0 0.0
2018-Apr-16 06:30N 40°47' W 073°54'0 0.0
2018-Apr-16 06:00N 40°47' W 073°54'0 0.0
2018-Apr-16 05:30N 40°47' W 073°54'0 0.0
2018-Apr-16 05:01N 40°47' W 073°54'0 0.0
2018-Apr-16 04:30N 40°47' W 073°54'0 0.0
2018-Apr-16 04:00N 40°47' W 073°54'0 0.0
2018-Apr-16 03:30N 40°47' W 073°54'0 0.0
2018-Apr-16 03:00N 40°47' W 073°54'0 0.0
2018-Apr-16 02:30N 40°47' W 073°54'0 0.0
2018-Apr-16 02:00N 40°47' W 073°54'0 0.0
2018-Apr-16 01:30N 40°47' W 073°54'0 0.0
2018-Apr-16 00:58N 40°47' W 073°54'0 0.0
2018-Apr-16 00:30N 40°47' W 073°54'0 0.0
2018-Apr-16 00:00N 40°47' W 073°54'0 0.0
2018-Apr-15 23:30N 40°47' W 073°54'0 0.0
2018-Apr-15 23:00N 40°47' W 073°54'0 0.0
2018-Apr-15 22:31N 40°47' W 073°54'0 0.0
2018-Apr-15 22:00N 40°47' W 073°54'0 0.0
2018-Apr-15 21:30N 40°47' W 073°54'0 0.0
2018-Apr-15 21:00N 40°47' W 073°54'0 0.0
2018-Apr-15 20:30N 40°47' W 073°54'0 0.0
2018-Apr-15 19:59N 40°47' W 073°54'0 0.0
2018-Apr-15 19:30N 40°47' W 073°54'0 0.0
2018-Apr-15 19:00N 40°47' W 073°54'0 0.0
2018-Apr-15 18:30N 40°47' W 073°54'0 0.0
2018-Apr-15 18:01N 40°47' W 073°54'0 0.0
2018-Apr-15 17:30N 40°47' W 073°54'0 0.0
2018-Apr-15 16:59N 40°47' W 073°54'0 0.0
2018-Apr-15 16:30N 40°47' W 073°54'0 0.0
2018-Apr-15 15:59N 40°47' W 073°54'0 0.0
2018-Apr-15 15:30N 40°47' W 073°54'0 0.0
2018-Apr-15 14:58N 40°47' W 073°54'0 0.0
2018-Apr-15 14:30N 40°47' W 073°54'0 0.0
2018-Apr-15 14:00N 40°47' W 073°54'0 0.0
2018-Apr-15 13:30N 40°47' W 073°54'0 0.0
2018-Apr-15 13:00N 40°47' W 073°54'0 0.0
2018-Apr-15 12:29N 40°47' W 073°54'0 0.0
2018-Apr-15 12:00N 40°47' W 073°54'0 0.0
2018-Apr-15 11:31N 40°47' W 073°54'0 0.0
2018-Apr-15 11:00N 40°47' W 073°54'0 0.0
2018-Apr-15 10:30N 40°47' W 073°54'0 0.0
2018-Apr-15 10:00N 40°47' W 073°54'0 0.0
2018-Apr-15 09:29N 40°47' W 073°54'0 0.0
2018-Apr-15 09:00N 40°47' W 073°54'0 0.0
2018-Apr-15 08:30N 40°47' W 073°54'0 0.0
2018-Apr-15 08:00N 40°47' W 073°54'0 0.0
2018-Apr-15 07:30N 40°47' W 073°54'0 0.0
2018-Apr-15 07:00N 40°47' W 073°54'0 0.0
2018-Apr-15 06:30N 40°47' W 073°54'0 0.0
2018-Apr-15 06:00N 40°47' W 073°54'0 0.0
2018-Apr-15 05:30N 40°47' W 073°54'0 0.0
2018-Apr-15 05:00N 40°47' W 073°54'0 0.0
2018-Apr-15 04:30N 40°47' W 073°54'0 0.0
2018-Apr-15 04:00N 40°47' W 073°54'0 0.0
2018-Apr-15 03:30N 40°47' W 073°54'0 0.0
2018-Apr-15 03:00N 40°47' W 073°54'0 0.0
2018-Apr-15 02:30N 40°47' W 073°54'0 0.0
2018-Apr-15 01:59N 40°47' W 073°54'0 0.0
2018-Apr-15 01:30N 40°47' W 073°54'0 0.0
2018-Apr-15 01:00N 40°47' W 073°54'0 0.0
2018-Apr-15 00:30N 40°47' W 073°54'0 0.0
2018-Apr-15 00:00N 40°47' W 073°54'0 0.0
2018-Apr-14 23:30N 40°47' W 073°54'0 0.0
2018-Apr-14 23:00N 40°47' W 073°54'0 0.0
2018-Apr-14 22:30N 40°47' W 073°54'0 0.0
2018-Apr-14 22:00N 40°47' W 073°54'0 0.0
2018-Apr-14 21:30N 40°47' W 073°54'0 0.0
2018-Apr-14 21:00N 40°47' W 073°54'0 0.0
2018-Apr-14 20:30N 40°47' W 073°54'0 0.0
2018-Apr-14 20:00N 40°47' W 073°54'0 0.0
2018-Apr-14 19:28N 40°47' W 073°54'0 0.0
2018-Apr-14 18:59N 40°47' W 073°54'0 0.0
2018-Apr-14 18:30N 40°47' W 073°54'0 0.0
2018-Apr-14 17:59N 40°47' W 073°54'0 0.0
2018-Apr-14 17:30N 40°47' W 073°54'0 0.0
2018-Apr-14 16:59N 40°47' W 073°54'0 0.0
2018-Apr-14 16:29N 40°47' W 073°54'0 0.0
2018-Apr-14 16:00N 40°47' W 073°54'0 0.0
2018-Apr-14 15:30N 40°47' W 073°54'0 0.0
2018-Apr-14 15:01N 40°47' W 073°54'0 0.0
2018-Apr-14 14:30N 40°47' W 073°54'0 0.0
2018-Apr-14 14:00N 40°47' W 073°54'0 0.0
2018-Apr-14 13:29N 40°47' W 073°54'0 0.0
2018-Apr-14 12:59N 40°47' W 073°54'0 0.0
2018-Apr-14 12:30N 40°47' W 073°54'0 0.0
2018-Apr-14 12:00N 40°47' W 073°54'0 0.0
2018-Apr-14 11:30N 40°47' W 073°54'0 0.0
2018-Apr-14 11:00N 40°47' W 073°54'0 0.0
2018-Apr-14 10:30N 40°47' W 073°54'0 0.0
2018-Apr-14 10:00N 40°47' W 073°54'0 0.0
2018-Apr-14 09:30N 40°47' W 073°54'0 0.0
2018-Apr-14 09:00N 40°47' W 073°54'0 0.0
2018-Apr-14 08:30N 40°47' W 073°54'0 0.0
2018-Apr-14 08:00N 40°47' W 073°54'0 0.0
2018-Apr-14 07:28N 40°47' W 073°54'0 0.0
2018-Apr-14 07:01N 40°47' W 073°54'0 0.0
2018-Apr-14 06:30N 40°47' W 073°54'0 0.0
2018-Apr-14 06:00N 40°47' W 073°54'0 0.0
2018-Apr-14 05:30N 40°47' W 073°54'0 0.0
2018-Apr-14 05:00N 40°47' W 073°54'0 0.0
2018-Apr-14 04:30N 40°47' W 073°54'0 0.0
2018-Apr-14 03:59N 40°47' W 073°54'0 0.0
2018-Apr-14 03:30N 40°47' W 073°54'0 0.0
2018-Apr-14 03:00N 40°47' W 073°54'0 0.0
2018-Apr-14 02:30N 40°47' W 073°54'0 0.0
2018-Apr-14 02:00N 40°47' W 073°54'0 0.0
2018-Apr-14 01:30N 40°47' W 073°54'0 0.0
2018-Apr-14 01:00N 40°47' W 073°54'0 0.0
2018-Apr-14 00:29N 40°47' W 073°54'0 0.0
2018-Apr-14 00:00N 40°47' W 073°54'0 0.0
2018-Apr-13 23:30N 40°47' W 073°54'0 0.0
2018-Apr-13 23:00N 40°47' W 073°54'0 0.0
2018-Apr-13 22:30N 40°47' W 073°54'0 0.0
2018-Apr-13 21:58N 40°47' W 073°54'0 0.0
2018-Apr-13 21:30N 40°47' W 073°54'0 0.0
2018-Apr-13 20:59N 40°47' W 073°54'0 0.0
2018-Apr-13 20:30N 40°47' W 073°54'0 0.0
2018-Apr-13 20:00N 40°47' W 073°54'1 2.2
2018-Apr-13 19:30N 40°48' W 073°55'4 8.8
2018-Apr-13 19:00N 40°44' W 073°58'5 9.1
2018-Apr-13 18:31N 40°41' W 074°02'5 9.3
2018-Apr-13 18:00N 40°39' W 074°07'4 7.3
2018-Apr-13 17:30N 40°42' W 074°07'0 1.0
2018-Apr-13 17:01N 40°43' W 074°07'0 0.0
2018-Apr-13 16:30N 40°43' W 074°07'0 0.0
2018-Apr-13 16:00N 40°43' W 074°07'2 3.6
2018-Apr-13 15:30N 40°41' W 074°08'2 4.9
2018-Apr-13 15:00N 40°39' W 074°06'3 6.2
2018-Apr-13 14:30N 40°39' W 074°02'0 0.0
2018-Apr-13 14:00N 40°39' W 074°02'0 0.0
2018-Apr-13 13:30N 40°39' W 074°02'0 0.0
2018-Apr-13 13:01N 40°39' W 074°02'1 2.3
2018-Apr-13 12:31N 40°40' W 074°01'8 8.3
2018-Apr-13 11:30N 40°47' W 073°56'1 1.3
2018-Apr-13 11:00N 40°47' W 073°55'0 0.0
2018-Apr-13 10:30N 40°47' W 073°55'0 0.0
2018-Apr-13 10:00N 40°47' W 073°55'0 0.0
2018-Apr-13 09:30N 40°47' W 073°55'0 0.0
2018-Apr-13 09:00N 40°47' W 073°55'0 0.0
2018-Apr-13 08:30N 40°47' W 073°55'0 0.0
2018-Apr-13 08:00N 40°47' W 073°55'0 0.0
2018-Apr-13 07:30N 40°47' W 073°55'0 0.0
2018-Apr-13 07:00N 40°47' W 073°55'0 0.0
2018-Apr-13 06:30N 40°47' W 073°55'0 0.0
2018-Apr-13 06:00N 40°47' W 073°55'0 0.0
2018-Apr-13 05:30N 40°47' W 073°55'0 0.0
2018-Apr-13 05:00N 40°47' W 073°55'0 0.0
2018-Apr-13 04:30N 40°47' W 073°55'0 0.0
2018-Apr-13 04:00N 40°47' W 073°55'0 0.0
2018-Apr-13 03:30N 40°47' W 073°55'0 0.0
2018-Apr-13 03:00N 40°47' W 073°55'0 0.0
2018-Apr-13 02:30N 40°47' W 073°55'0 0.0
2018-Apr-13 01:59N 40°47' W 073°55'0 0.0
2018-Apr-13 01:30N 40°47' W 073°55'0 0.0
2018-Apr-13 01:00N 40°47' W 073°55'0 0.0
2018-Apr-13 00:28N 40°47' W 073°55'0 0.0
2018-Apr-13 00:00N 40°47' W 073°55'0 0.0
2018-Apr-12 23:24N 40°47' W 073°55'0 0.0
2018-Apr-12 22:59N 40°47' W 073°55'0 0.0
2018-Apr-12 22:27N 40°47' W 073°55'3 6.0
2018-Apr-12 22:00N 40°45' W 073°57'4 8.4
2018-Apr-12 21:30N 40°42' W 074°01'510.0
2018-Apr-12 21:00N 40°47' W 073°60'3 5.4
2018-Apr-12 20:30N 40°49' W 073°58'0 0.0
2018-Apr-12 20:00N 40°49' W 073°58'0 0.0
2018-Apr-12 19:29N 40°49' W 073°58'0 0.0
2018-Apr-12 19:00N 40°49' W 073°58'1 1.4
2018-Apr-12 18:30N 40°49' W 073°58'4 8.5
2018-Apr-12 18:00N 40°45' W 074°01'4 8.8
2018-Apr-12 17:30N 40°41' W 074°02'5 9.3
2018-Apr-12 17:00N 40°39' W 074°07'0 0.2
2018-Apr-12 16:30N 40°38' W 074°08'0 0.0
2018-Apr-12 16:00N 40°38' W 074°08'0 0.0
2018-Apr-12 15:30N 40°38' W 074°08'2 4.6
2018-Apr-12 15:00N 40°39' W 074°05'2 4.1
2018-Apr-12 14:30N 40°39' W 074°02'0 0.0
2018-Apr-12 14:00N 40°39' W 074°02'0 0.0
2018-Apr-12 13:30N 40°39' W 074°02'0 0.0
2018-Apr-12 13:00N 40°39' W 074°02'0 0.0
2018-Apr-12 12:30N 40°39' W 074°02'4 7.5
2018-Apr-12 12:00N 40°42' W 074°00'4 8.4
2018-Apr-12 11:30N 40°46' W 073°57'2 4.3
2018-Apr-12 10:58N 40°47' W 073°55'0 0.0
2018-Apr-12 10:30N 40°47' W 073°55'0 0.0
2018-Apr-12 10:00N 40°47' W 073°55'0 0.0
2018-Apr-12 09:30N 40°47' W 073°55'0 0.0
2018-Apr-12 09:00N 40°47' W 073°55'0 0.0
2018-Apr-12 08:30N 40°47' W 073°55'0 0.0
2018-Apr-12 08:00N 40°47' W 073°55'0 0.0
2018-Apr-12 07:30N 40°47' W 073°55'0 0.0
2018-Apr-12 07:00N 40°47' W 073°55'0 0.0
2018-Apr-12 06:30N 40°47' W 073°55'0 0.0
2018-Apr-12 06:00N 40°47' W 073°55'0 0.0
2018-Apr-12 05:30N 40°47' W 073°55'0 0.0
2018-Apr-12 04:59N 40°47' W 073°55'0 0.0
2018-Apr-12 04:30N 40°47' W 073°55'0 0.0
2018-Apr-12 03:59N 40°47' W 073°55'0 0.0
2018-Apr-12 03:30N 40°47' W 073°55'0 0.0
2018-Apr-12 03:00N 40°47' W 073°55'0 0.0
2018-Apr-12 02:30N 40°47' W 073°55'0 0.0
2018-Apr-12 01:59N 40°47' W 073°55'0 0.0
2018-Apr-12 01:30N 40°47' W 073°55'0 0.0
2018-Apr-12 01:00N 40°47' W 073°55'0 0.0
2018-Apr-12 00:30N 40°47' W 073°55'0 0.0
2018-Apr-12 00:00N 40°47' W 073°55'0 0.0
2018-Apr-11 23:30N 40°47' W 073°55'0 0.0
2018-Apr-11 22:59N 40°47' W 073°55'0 0.0
2018-Apr-11 22:30N 40°47' W 073°55'2 4.4
2018-Apr-11 22:00N 40°46' W 073°57'611.7
2018-Apr-11 21:30N 40°41' W 074°01'510.7
2018-Apr-11 21:00N 40°36' W 074°02'4 8.5
2018-Apr-11 20:30N 40°34' W 073°57'4 6.6
2018-Apr-11 19:50N 40°37' W 073°53'  

Dump ship's entire track history